Time;durP1;ratioP1;P1;durP2;ratioP2;P2;SDS_P1;SDS_P2;PMS_P1;PMS_P2;Temp;Humidity;BMP_temperature;BMP_pressure;BME280_temperature;BME280_humidity;BME280_pressure;Samples;Min_cycle;Max_cycle;Signal;HPM_P1;HPM_P2
2023/10/21 00:00:49;;;;;;;;;;;;;;;;;;5052453;28;20445;-80
2023/10/21 00:03:16;;;;;;;;;;;;;;;;;;5052872;28;19971;-80
2023/10/21 00:05:43;;;;;;;;;;;;;;;;;;5039796;28;19932;-80
2023/10/21 00:08:10;;;;;;;;;;;;;;;;;;5052958;28;20311;-76
2023/10/21 00:10:37;;;;;;;;;;;;;;;;;;5052172;28;19924;-76
2023/10/21 00:13:04;;;;;;;;;;;;;;;;;;5046475;28;20311;-77
2023/10/21 00:15:31;;;;;;;;;;;;;;;;;;5054364;28;19925;-76
2023/10/21 00:17:58;;;;;;;;;;;;;;;;;;5051808;28;19925;-76
2023/10/21 00:20:25;;;;;;;;;;;;;;;;;;5048938;28;19939;-77
2023/10/21 00:22:52;;;;;;;;;;;;;;;;;;5050576;28;19924;-77
2023/10/21 00:25:19;;;;;;;;;;;;;;;;;;5052169;28;19925;-76
2023/10/21 00:27:46;;;;;;;;;;;;;;;;;;5051155;28;19925;-76
2023/10/21 00:30:14;;;;;;;;;;;;;;;;;;5052403;28;19928;-76
2023/10/21 00:32:41;;;;;;;;;;;;;;;;;;5055020;28;20430;-78
2023/10/21 00:35:08;;;;;;;;;;;;;;;;;;5049131;28;19928;-77
2023/10/21 00:37:35;;;;;;;;;;;;;;;;;;5051701;28;19929;-76
2023/10/21 00:40:03;;;;;;;;;;;;;;;;;;5051459;28;19925;-76
2023/10/21 00:42:30;;;;;;;;;;;;;;;;;;5051097;28;19925;-76
2023/10/21 00:44:57;;;;;;;;;;;;;;;;;;5051819;28;19924;-76
2023/10/21 00:47:24;;;;;;;;;;;;;;;;;;5051617;28;19924;-76
2023/10/21 00:49:52;;;;;;;;;;;;;;;;;;5050355;28;19991;-76
2023/10/21 00:52:19;;;;;;;;;;;;;;;;;;5051509;28;19925;-76
2023/10/21 00:54:46;;;;;;;;;;;;;;;;;;5051436;28;19933;-76
2023/10/21 00:57:13;;;;;;;;;;;;;;;;;;5052222;28;19925;-77
2023/10/21 00:59:41;;;;;;;;;;;;;;;;;;5052142;28;19925;-76
2023/10/21 01:02:08;;;;;;;;;;;;;;;;;;5052026;28;19925;-76
2023/10/21 01:04:35;;;;;;;;;;;;;;;;;;5050040;28;19947;-76
2023/10/21 01:07:02;;;;;;;;;;;;;;;;;;5056098;28;19925;-76
2023/10/21 01:09:30;;;;;;;;;;;;;;;;;;5051385;28;19933;-76
2023/10/21 01:11:57;;;;;;;;;;;;;;;;;;5051131;28;20450;-76
2023/10/21 01:14:24;;;;;;;;;;;;;;;;;;5052570;28;19925;-75
2023/10/21 01:16:51;;;;;;;;;;;;;;;;;;5055094;28;19933;-76
2023/10/21 01:19:18;;;;;;;;;;;;;;;;;;5053756;28;19978;-73
2023/10/21 01:21:45;;;;;;;;;;;;;;;;;;5054631;28;19924;-75
2023/10/21 01:24:12;;;;;;;;;;;;;;;;;;5059327;28;20012;-75
2023/10/21 01:26:39;;;;;;;;;;;;;;;;;;5055259;28;19925;-76
2023/10/21 01:29:06;;;;;;;;;;;;;;;;;;5054807;28;19971;-76
2023/10/21 01:31:33;;;;;;;;;;;;;;;;;;5044682;28;20019;-75
2023/10/21 01:34:00;;;;;;;;;;;;;;;;;;5054227;28;19925;-74
2023/10/21 01:36:27;;;;;;;;;;;;;;;;;;5054401;28;19928;-75
2023/10/21 01:38:54;;;;;;;;;;;;;;;;;;5054823;28;19925;-74
2023/10/21 01:41:21;;;;;;;;;;;;;;;;;;5053781;28;19991;-75
2023/10/21 01:43:48;;;;;;;;;;;;;;;;;;5054731;28;19990;-75
2023/10/21 01:46:15;;;;;;;;;;;;;;;;;;5054174;28;19970;-75
2023/10/21 01:48:42;;;;;;;;;;;;;;;;;;5054006;28;19925;-75
2023/10/21 01:51:09;;;;;;;;;;;;;;;;;;5054149;28;20303;-75
2023/10/21 01:53:36;;;;;;;;;;;;;;;;;;5050942;28;19963;-75
2023/10/21 01:56:03;;;;;;;;;;;;;;;;;;5054289;28;19979;-74
2023/10/21 01:58:31;;;;;;;;;;;;;;;;;;5055401;28;19932;-74
2023/10/21 02:00:58;;;;;;;;;;;;;;;;;;5054059;28;19924;-76
2023/10/21 02:03:26;;;;;;;;;;;;;;;;;;5053492;28;19935;-76
2023/10/21 02:05:53;;;;;;;;;;;;;;;;;;5053599;28;19979;-76
2023/10/21 02:08:20;;;;;;;;;;;;;;;;;;5053034;28;19931;-76
2023/10/21 02:10:47;;;;;;;;;;;;;;;;;;5052767;28;19925;-75
2023/10/21 02:13:14;;;;;;;;;;;;;;;;;;5053886;28;19968;-75
2023/10/21 02:15:41;;;;;;;;;;;;;;;;;;5055307;28;19968;-75
2023/10/21 02:18:08;;;;;;;;;;;;;;;;;;5048500;28;20038;-75
2023/10/21 02:20:35;;;;;;;;;;;;;;;;;;5053470;28;19940;-75
2023/10/21 02:23:03;;;;;;;;;;;;;;;;;;5054048;28;19994;-75
2023/10/21 02:25:30;;;;;;;;;;;;;;;;;;5053431;28;20269;-75
2023/10/21 02:27:57;;;;;;;;;;;;;;;;;;5054196;28;20015;-75
2023/10/21 02:30:24;;;;;;;;;;;;;;;;;;5054009;28;19929;-75
2023/10/21 02:32:51;;;;;;;;;;;;;;;;;;5053496;28;19968;-75
2023/10/21 02:35:18;;;;;;;;;;;;;;;;;;5052881;28;20299;-75
2023/10/21 02:37:45;;;;;;;;;;;;;;;;;;5053033;28;20399;-75
2023/10/21 02:40:15;;;;;;;;;;;;;;;;;;5053514;28;19978;-76
2023/10/21 02:42:42;;;;;;;;;;;;;;;;;;5053151;28;20012;-76
2023/10/21 02:45:09;;;;;;;;;;;;;;;;;;5052376;28;19932;-75
2023/10/21 02:47:36;;;;;;;;;;;;;;;;;;5046095;28;19935;-75
2023/10/21 02:50:03;;;;;;;;;;;;;;;;;;5042384;28;20669;-76
2023/10/21 02:52:30;;;;;;;;;;;;;;;;;;5035570;28;19925;-79
2023/10/21 02:54:57;;;;;;;;;;;;;;;;;;5045501;28;20288;-76
2023/10/21 02:57:24;;;;;;;;;;;;;;;;;;5040239;28;19925;-76
2023/10/21 02:59:51;;;;;;;;;;;;;;;;;;5037200;28;19972;-75
2023/10/21 03:02:18;;;;;;;;;;;;;;;;;;5035030;28;19932;-74
2023/10/21 03:04:45;;;;;;;;;;;;;;;;;;5040403;28;19944;-74
2023/10/21 03:07:12;;;;;;;;;;;;;;;;;;5039575;28;19975;-75
2023/10/21 03:09:39;;;;;;;;;;;;;;;;;;5037561;28;20011;-75
2023/10/21 03:12:07;;;;;;;;;;;;;;;;;;5040669;28;19925;-74
2023/10/21 03:14:34;;;;;;;;;;;;;;;;;;5038483;28;19971;-76
2023/10/21 03:17:01;;;;;;;;;;;;;;;;;;5041187;28;19933;-75
2023/10/21 03:19:28;;;;;;;;;;;;;;;;;;5041934;28;19924;-75
2023/10/21 03:21:56;;;;;;;;;;;;;;;;;;5045861;28;19933;-75
2023/10/21 03:24:23;;;;;;;;;;;;;;;;;;5046624;28;19974;-75
2023/10/21 03:26:51;;;;;;;;;;;;;;;;;;5037709;28;19929;-76
2023/10/21 03:29:18;;;;;;;;;;;;;;;;;;5035507;28;19925;-75
2023/10/21 03:31:45;;;;;;;;;;;;;;;;;;5040753;28;20019;-75
2023/10/21 03:34:12;;;;;;;;;;;;;;;;;;5034714;28;19980;-75
2023/10/21 03:36:39;;;;;;;;;;;;;;;;;;5036930;28;19924;-75
2023/10/21 03:39:07;;;;;;;;;;;;;;;;;;5041708;28;19955;-76
2023/10/21 03:41:34;;;;;;;;;;;;;;;;;;5044354;28;19980;-75
2023/10/21 03:44:01;;;;;;;;;;;;;;;;;;5036962;28;20335;-76
2023/10/21 03:46:28;;;;;;;;;;;;;;;;;;5036187;28;20384;-75
2023/10/21 03:48:55;;;;;;;;;;;;;;;;;;5042441;28;19925;-75
2023/10/21 03:51:22;;;;;;;;;;;;;;;;;;5039533;28;20445;-75
2023/10/21 03:53:49;;;;;;;;;;;;;;;;;;5037874;28;19972;-75
2023/10/21 03:56:18;;;;;;;;;;;;;;;;;;5048843;28;22467;-75
2023/10/21 03:58:46;;;;;;;;;;;;;;;;;;5041142;28;19933;-75
2023/10/21 04:01:13;;;;;;;;;;;;;;;;;;5038024;28;19930;-75
2023/10/21 04:03:40;;;;;;;;;;;;;;;;;;5035212;28;20372;-76
2023/10/21 04:06:09;;;;;;;;;;;;;;;;;;5037477;28;19992;-76
2023/10/21 04:08:37;;;;;;;;;;;;;;;;;;5038836;28;19931;-75
2023/10/21 04:11:04;;;;;;;;;;;;;;;;;;5039773;28;19925;-75
2023/10/21 04:13:31;;;;;;;;;;;;;;;;;;5040401;28;19925;-75
2023/10/21 04:15:59;;;;;;;;;;;;;;;;;;5039273;28;19925;-75
2023/10/21 04:18:26;;;;;;;;;;;;;;;;;;5044823;28;19970;-74
2023/10/21 04:20:54;;;;;;;;;;;;;;;;;;5037277;28;19932;-75
2023/10/21 04:23:21;;;;;;;;;;;;;;;;;;5051394;28;19925;-74
2023/10/21 04:25:48;;;;;;;;;;;;;;;;;;5048798;28;19925;-74
2023/10/21 04:28:16;;;;;;;;;;;;;;;;;;5039959;28;20474;-73
2023/10/21 04:30:45;;;;;;;;;;;;;;;;;;5047341;28;20387;-74
2023/10/21 04:33:12;;;;;;;;;;;;;;;;;;5041511;28;19931;-74
2023/10/21 04:35:39;;;;;;;;;;;;;;;;;;5039949;28;20446;-74
2023/10/21 04:38:06;;;;;;;;;;;;;;;;;;5043209;28;19990;-74
2023/10/21 04:40:33;;;;;;;;;;;;;;;;;;5038581;28;19929;-74
2023/10/21 04:43:00;;;;;;;;;;;;;;;;;;5033297;28;19979;-74
2023/10/21 04:45:27;;;;;;;;;;;;;;;;;;5037498;28;19971;-73
2023/10/21 04:47:54;;;;;;;;;;;;;;;;;;5040672;28;19929;-73
2023/10/21 04:50:21;;;;;;;;;;;;;;;;;;5042502;28;19925;-74
2023/10/21 04:52:48;;;;;;;;;;;;;;;;;;5040466;28;19925;-74
2023/10/21 04:55:15;;;;;;;;;;;;;;;;;;5043768;28;19925;-75
2023/10/21 04:57:42;;;;;;;;;;;;;;;;;;5046491;28;19929;-74
2023/10/21 05:00:09;;;;;;;;;;;;;;;;;;5051254;28;19956;-74
2023/10/21 05:02:36;;;;;;;;;;;;;;;;;;5040124;28;19929;-74
2023/10/21 05:05:03;;;;;;;;;;;;;;;;;;5047155;28;19979;-73
2023/10/21 05:07:30;;;;;;;;;;;;;;;;;;5047575;28;19971;-74
2023/10/21 05:09:58;;;;;;;;;;;;;;;;;;5041644;28;20353;-76
2023/10/21 05:12:25;;;;;;;;;;;;;;;;;;5042262;28;19978;-74
2023/10/21 05:14:52;;;;;;;;;;;;;;;;;;5035326;28;20445;-74
2023/10/21 05:17:19;;;;;;;;;;;;;;;;;;5043383;28;19925;-74
2023/10/21 05:19:46;;;;;;;;;;;;;;;;;;5038442;28;19938;-73
2023/10/21 05:22:14;;;;;;;;;;;;;;;;;;5047344;28;20342;-74
2023/10/21 05:24:41;;;;;;;;;;;;;;;;;;5043332;28;20299;-73
2023/10/21 05:27:09;;;;;;;;;;;;;;;;;;5037336;28;19968;-74
2023/10/21 05:29:36;;;;;;;;;;;;;;;;;;5038933;28;19925;-75
2023/10/21 05:32:03;;;;;;;;;;;;;;;;;;5041752;28;19976;-75
2023/10/21 05:34:30;;;;;;;;;;;;;;;;;;5041091;28;19924;-74
2023/10/21 05:36:57;;;;;;;;;;;;;;;;;;5040189;28;20288;-74
2023/10/21 05:39:24;;;;;;;;;;;;;;;;;;5045051;28;19940;-73
2023/10/21 05:41:51;;;;;;;;;;;;;;;;;;5041948;28;19956;-73
2023/10/21 05:44:18;;;;;;;;;;;;;;;;;;5038040;28;20340;-73
2023/10/21 05:46:45;;;;;;;;;;;;;;;;;;5043501;28;19964;-74
2023/10/21 05:49:13;;;;;;;;;;;;;;;;;;5039080;28;19925;-75
2023/10/21 05:51:40;;;;;;;;;;;;;;;;;;5045018;28;19967;-74
2023/10/21 05:54:07;;;;;;;;;;;;;;;;;;5038040;28;19925;-75
2023/10/21 05:56:34;;;;;;;;;;;;;;;;;;5041563;28;19929;-74
2023/10/21 05:59:01;;;;;;;;;;;;;;;;;;5042550;28;19940;-74
2023/10/21 06:01:28;;;;;;;;;;;;;;;;;;5042824;28;20379;-74
2023/10/21 06:03:55;;;;;;;;;;;;;;;;;;5044592;28;19929;-76
2023/10/21 06:06:22;;;;;;;;;;;;;;;;;;5044756;28;20391;-77
2023/10/21 06:08:49;;;;;;;;;;;;;;;;;;5052308;28;20265;-77
2023/10/21 06:11:16;;;;;;;;;;;;;;;;;;5046794;28;19929;-76
2023/10/21 06:13:43;;;;;;;;;;;;;;;;;;5048210;28;19948;-78
2023/10/21 06:16:10;;;;;;;;;;;;;;;;;;5045780;28;19996;-78
2023/10/21 06:18:37;;;;;;;;;;;;;;;;;;5042944;28;19987;-78
2023/10/21 06:21:04;;;;;;;;;;;;;;;;;;5047303;28;19928;-76
2023/10/21 06:23:32;;;;;;;;;;;;;;;;;;5047906;28;19931;-78
2023/10/21 06:25:59;;;;;;;;;;;;;;;;;;5046362;28;19999;-78
2023/10/21 06:28:26;;;;;;;;;;;;;;;;;;5044556;28;19960;-78
2023/10/21 06:30:53;;;;;;;;;;;;;;;;;;5047883;28;19924;-79
2023/10/21 06:33:20;;;;;;;;;;;;;;;;;;5050816;28;20059;-77
2023/10/21 06:35:48;;;;;;;;;;;;;;;;;;5048247;28;19929;-81
2023/10/21 06:38:15;;;;;;;;;;;;;;;;;;5041943;28;19932;-76
2023/10/21 06:40:42;;;;;;;;;;;;;;;;;;5045854;28;20401;-82
2023/10/21 06:43:09;;;;;;;;;;;;;;;;;;5040077;28;19925;-77
2023/10/21 06:45:38;;;;;;;;;;;;;;;;;;5047768;28;20391;-76
2023/10/21 06:48:05;;;;;;;;;;;;;;;;;;5051952;28;21260;-79
2023/10/21 06:50:32;;;;;;;;;;;;;;;;;;5047791;28;19925;-77
2023/10/21 06:52:59;;;;;;;;;;;;;;;;;;5041846;28;19925;-77
2023/10/21 06:55:26;;;;;;;;;;;;;;;;;;5045914;28;19982;-77
2023/10/21 06:57:53;;;;;;;;;;;;;;;;;;5042566;28;19924;-76
2023/10/21 07:00:20;;;;;;;;;;;;;;;;;;5039670;28;19991;-76
2023/10/21 07:02:47;;;;;;;;;;;;;;;;;;5044347;28;19931;-72
2023/10/21 07:05:15;;;;;;;;;;;;;;;;;;5041694;28;20010;-72
2023/10/21 07:07:42;;;;;;;;;;;;;;;;;;5041411;28;19942;-72
2023/10/21 07:10:10;;;;;;;;;;;;;;;;;;5047594;28;19940;-73
2023/10/21 07:12:38;;;;;;;;;;;;;;;;;;5049234;28;20028;-74
2023/10/21 07:15:05;;;;;;;;;;;;;;;;;;5048209;28;20359;-74
2023/10/21 07:17:33;;;;;;;;;;;;;;;;;;5043598;28;19952;-73
2023/10/21 07:20:00;;;;;;;;;;;;;;;;;;5050156;28;20256;-74
2023/10/21 07:22:27;;;;;;;;;;;;;;;;;;5048937;28;19929;-73
2023/10/21 07:24:54;;;;;;;;;;;;;;;;;;5049627;28;19925;-73
2023/10/21 07:27:21;;;;;;;;;;;;;;;;;;5048647;28;19925;-73
2023/10/21 07:29:48;;;;;;;;;;;;;;;;;;5049447;28;19925;-74
2023/10/21 07:32:15;;;;;;;;;;;;;;;;;;5049305;28;20445;-74
2023/10/21 07:34:42;;;;;;;;;;;;;;;;;;5046990;28;19940;-74
2023/10/21 07:37:09;;;;;;;;;;;;;;;;;;5051786;28;20345;-75
2023/10/21 07:39:36;;;;;;;;;;;;;;;;;;5044582;28;19948;-77
2023/10/21 07:42:04;;;;;;;;;;;;;;;;;;5046075;28;20372;-76
2023/10/21 07:44:31;;;;;;;;;;;;;;;;;;5042181;28;19924;-75
2023/10/21 07:46:58;;;;;;;;;;;;;;;;;;5044677;28;19999;-76
2023/10/21 07:49:25;;;;;;;;;;;;;;;;;;5043850;28;19925;-74
2023/10/21 07:51:52;;;;;;;;;;;;;;;;;;5040593;28;19932;-73
2023/10/21 07:54:19;;;;;;;;;;;;;;;;;;5041234;28;20358;-79
2023/10/21 07:56:46;;;;;;;;;;;;;;;;;;5041792;28;19925;-77
2023/10/21 07:59:13;;;;;;;;;;;;;;;;;;5039448;28;20368;-80
2023/10/21 08:01:40;;;;;;;;;;;;;;;;;;5044355;28;20011;-74
2023/10/21 08:04:08;;;;;;;;;;;;;;;;;;5050589;28;19986;-76
2023/10/21 08:06:35;;;;;;;;;;;;;;;;;;5047047;28;19932;-75
2023/10/21 08:09:04;;;;;;;;;;;;;;;;;;5045042;28;19925;-75
2023/10/21 08:11:31;;;;;;;;;;;;;;;;;;5046817;28;20067;-75
2023/10/21 08:13:58;;;;;;;;;;;;;;;;;;5046726;28;20391;-74
2023/10/21 08:16:25;;;;;;;;;;;;;;;;;;5050133;28;19925;-75
2023/10/21 08:18:52;;;;;;;;;;;;;;;;;;5046915;28;20445;-75
2023/10/21 08:21:19;;;;;;;;;;;;;;;;;;5048181;28;19979;-75
2023/10/21 08:23:46;;;;;;;;;;;;;;;;;;5051119;28;19956;-73
2023/10/21 08:26:13;;;;;;;;;;;;;;;;;;5055075;28;19925;-74
2023/10/21 08:28:41;;;;;;;;;;;;;;;;;;5053916;28;19932;-72
2023/10/21 08:31:08;;;;;;;;;;;;;;;;;;5056127;28;19924;-74
2023/10/21 08:33:35;;;;;;;;;;;;;;;;;;5051610;28;20340;-75
2023/10/21 08:36:02;;;;;;;;;;;;;;;;;;5052942;28;19925;-77
2023/10/21 08:38:29;;;;;;;;;;;;;;;;;;5051937;28;19928;-76
2023/10/21 08:40:56;;;;;;;;;;;;;;;;;;5053702;28;19925;-77
2023/10/21 08:43:24;;;;;;;;;;;;;;;;;;5052503;28;19964;-76
2023/10/21 08:45:52;;;;;;;;;;;;;;;;;;5054456;28;19929;-77
2023/10/21 08:48:19;;;;;;;;;;;;;;;;;;5052567;28;19924;-78
2023/10/21 08:50:49;;;;;;;;;;;;;;;;;;5053210;28;21883;-79
2023/10/21 08:53:16;;;;;;;;;;;;;;;;;;5053416;28;19948;-76
2023/10/21 08:55:43;;;;;;;;;;;;;;;;;;5054621;28;19935;-77
2023/10/21 08:58:10;;;;;;;;;;;;;;;;;;5053326;28;20070;-76
2023/10/21 09:00:38;;;;;;;;;;;;;;;;;;5048276;28;19939;-77
2023/10/21 09:03:05;;;;;;;;;;;;;;;;;;5046999;28;19933;-77
2023/10/21 09:05:34;;;;;;;;;;;;;;;;;;5052543;28;19925;-77
2023/10/21 09:08:01;;;;;;;;;;;;;;;;;;5053738;28;19972;-76
2023/10/21 09:10:30;;;;;;;;;;;;;;;;;;5050484;28;19932;-76
2023/10/21 09:12:57;;;;;;;;;;;;;;;;;;5048250;28;20505;-76
2023/10/21 09:15:24;;;;;;;;;;;;;;;;;;5049350;28;19925;-77
2023/10/21 09:17:53;;;;;;;;;;;;;;;;;;5051636;28;19925;-77
2023/10/21 09:20:21;;;;;;;;;;;;;;;;;;5051410;28;19925;-77
2023/10/21 09:22:49;;;;;;;;;;;;;;;;;;5051831;28;19928;-76
2023/10/21 09:25:16;;;;;;;;;;;;;;;;;;5050599;28;19983;-76
2023/10/21 09:27:43;;;;;;;;;;;;;;;;;;5052442;28;20345;-77
2023/10/21 09:30:10;;;;;;;;;;;;;;;;;;5052119;28;19971;-76
2023/10/21 09:32:37;;;;;;;;;;;;;;;;;;5051533;28;19924;-77
2023/10/21 09:35:04;;;;;;;;;;;;;;;;;;5044019;28;19925;-76
2023/10/21 09:37:31;;;;;;;;;;;;;;;;;;5044551;28;19972;-78
2023/10/21 09:39:59;;;;;;;;;;;;;;;;;;5047456;28;19936;-77
2023/10/21 09:42:26;;;;;;;;;;;;;;;;;;5041260;28;20462;-76
2023/10/21 09:44:53;;;;;;;;;;;;;;;;;;5040115;28;19934;-77
2023/10/21 09:47:21;;;;;;;;;;;;;;;;;;5045934;28;20510;-77
2023/10/21 09:49:48;;;;;;;;;;;;;;;;;;5038858;28;19925;-76
2023/10/21 09:52:15;;;;;;;;;;;;;;;;;;5045975;28;19925;-76
2023/10/21 09:54:43;;;;;;;;;;;;;;;;;;5046324;28;20368;-77
2023/10/21 09:57:11;;;;;;;;;;;;;;;;;;5046417;28;19978;-77
2023/10/21 09:59:38;;;;;;;;;;;;;;;;;;5045939;28;19932;-77
2023/10/21 10:02:06;;;;;;;;;;;;;;;;;;5041568;28;19928;-77
2023/10/21 10:04:33;;;;;;;;;;;;;;;;;;5044045;28;21659;-77
2023/10/21 10:07:06;;;;;;;;;;;;;;;;;;5043973;28;19925;-77
2023/10/21 10:09:36;;;;;;;;;;;;;;;;;;5038497;28;19978;-77
2023/10/21 10:12:03;;;;;;;;;;;;;;;;;;5052254;28;20395;-77
2023/10/21 10:14:30;;;;;;;;;;;;;;;;;;5045922;28;19925;-78
2023/10/21 10:16:57;;;;;;;;;;;;;;;;;;5046750;28;20295;-76
2023/10/21 10:19:24;;;;;;;;;;;;;;;;;;5048973;28;19928;-75
2023/10/21 10:21:52;;;;;;;;;;;;;;;;;;5045045;28;20346;-80
2023/10/21 10:24:19;;;;;;;;;;;;;;;;;;5038130;28;19925;-74
2023/10/21 10:26:47;;;;;;;;;;;;;;;;;;5050921;28;19970;-78
2023/10/21 10:29:14;;;;;;;;;;;;;;;;;;5054173;28;19968;-76
2023/10/21 10:31:41;;;;;;;;;;;;;;;;;;5043920;28;19936;-77
2023/10/21 10:34:10;;;;;;;;;;;;;;;;;;5043125;28;19925;-77
2023/10/21 10:36:37;;;;;;;;;;;;;;;;;;5046476;28;19967;-75
2023/10/21 10:39:05;;;;;;;;;;;;;;;;;;5049386;28;19928;-76
2023/10/21 10:41:32;;;;;;;;;;;;;;;;;;5049044;28;20442;-77
2023/10/21 10:44:01;;;;;;;;;;;;;;;;;;5052675;28;19935;-76
2023/10/21 10:46:29;;;;;;;;;;;;;;;;;;5047857;28;19935;-76
2023/10/21 10:48:57;;;;;;;;;;;;;;;;;;5049941;28;19987;-76
2023/10/21 10:51:27;;;;;;;;;;;;;;;;;;5047157;28;19932;-77
2023/10/21 10:53:56;;;;;;;;;;;;;;;;;;5041688;28;19976;-76
2023/10/21 10:56:25;;;;;;;;;;;;;;;;;;5047640;28;19924;-76
2023/10/21 10:58:52;;;;;;;;;;;;;;;;;;5049377;28;19978;-76
2023/10/21 11:01:19;;;;;;;;;;;;;;;;;;5049725;28;21945;-77
2023/10/21 11:03:46;;;;;;;;;;;;;;;;;;5047116;28;19925;-77
2023/10/21 11:06:13;;;;;;;;;;;;;;;;;;5050852;28;20391;-77
2023/10/21 11:08:42;;;;;;;;;;;;;;;;;;5042529;28;20015;-77
2023/10/21 11:11:10;;;;;;;;;;;;;;;;;;5050600;28;19943;-77
2023/10/21 11:13:37;;;;;;;;;;;;;;;;;;5046947;28;19928;-77
2023/10/21 11:16:07;;;;;;;;;;;;;;;;;;5046071;28;19925;-77
2023/10/21 11:18:34;;;;;;;;;;;;;;;;;;5052182;28;20280;-77
2023/10/21 11:21:01;;;;;;;;;;;;;;;;;;5049401;28;20009;-77
2023/10/21 11:23:28;;;;;;;;;;;;;;;;;;5050161;28;19936;-78
2023/10/21 11:25:56;;;;;;;;;;;;;;;;;;5050298;28;20284;-77
2023/10/21 11:28:23;;;;;;;;;;;;;;;;;;5043970;28;19924;-78
2023/10/21 11:30:50;;;;;;;;;;;;;;;;;;5047675;28;19987;-77
2023/10/21 11:33:17;;;;;;;;;;;;;;;;;;5050679;28;19956;-77
2023/10/21 11:35:44;;;;;;;;;;;;;;;;;;5049362;28;20011;-77
2023/10/21 11:38:11;;;;;;;;;;;;;;;;;;5046099;28;19932;-82
2023/10/21 11:40:38;;;;;;;;;;;;;;;;;;5051461;28;19925;-78
2023/10/21 11:43:05;;;;;;;;;;;;;;;;;;5048597;28;19929;-81
2023/10/21 11:45:32;;;;;;;;;;;;;;;;;;5050481;28;20413;-78
2023/10/21 11:47:59;;;;;;;;;;;;;;;;;;5048793;28;20020;-77
2023/10/21 11:50:32;;;;;;;;;;;;;;;;;;5049008;28;20307;-76
2023/10/21 11:52:59;;;;;;;;;;;;;;;;;;5051148;28;19983;-76
2023/10/21 11:56:01;;;;;;;;;;;;;;;;;;5051364;28;19925;-77
2023/10/21 12:12:38;;;;;;;;;;;;;;;;;;5063450;28;19925;-79
2023/10/21 12:15:36;;;;;;;;;;;;;;;;;;5049490;28;20596;-78
2023/10/21 12:21:21;;;;;;;;;;;;;;;;;;5036990;28;19929;-75
2023/10/21 12:24:32;;;;;;;;;;;;;;;;;;5050619;28;19940;-76
2023/10/21 12:35:48;;;;;;;;;;;;;;;;;;5013363;28;20002;-76
2023/10/21 12:38:23;;;;;;;;;;;;;;;;;;5049702;28;20353;-77
2023/10/21 12:43:38;;;;;;;;;;;;;;;;;;5048172;28;19924;-76
2023/10/21 12:46:16;;;;;;;;;;;;;;;;;;5043492;28;20393;-79
2023/10/21 12:48:43;;;;;;;;;;;;;;;;;;5050496;28;20019;-76
2023/10/21 12:51:14;;;;;;;;;;;;;;;;;;5048002;28;19978;-78
2023/10/21 12:53:41;;;;;;;;;;;;;;;;;;5050769;28;19936;-78
2023/10/21 12:56:09;;;;;;;;;;;;;;;;;;5049966;28;19925;-77
2023/10/21 12:58:36;;;;;;;;;;;;;;;;;;5050489;28;20391;-78
2023/10/21 13:01:04;;;;;;;;;;;;;;;;;;5051732;28;19924;-78
2023/10/21 13:03:31;;;;;;;;;;;;;;;;;;5046430;28;19925;-78
2023/10/21 13:05:58;;;;;;;;;;;;;;;;;;5038811;28;19987;-77
2023/10/21 13:08:26;;;;;;;;;;;;;;;;;;5041351;28;20326;-78
2023/10/21 13:10:54;;;;;;;;;;;;;;;;;;5042888;28;19933;-78
2023/10/21 13:13:21;;;;;;;;;;;;;;;;;;5049693;28;20296;-78
2023/10/21 13:15:49;;;;;;;;;;;;;;;;;;5053594;28;19925;-77
2023/10/21 13:18:18;;;;;;;;;;;;;;;;;;5053940;28;19968;-77
2023/10/21 13:20:45;;;;;;;;;;;;;;;;;;5064990;28;19931;-77
2023/10/21 13:23:12;;;;;;;;;;;;;;;;;;5045955;28;20018;-78
2023/10/21 13:25:39;;;;;;;;;;;;;;;;;;5054782;28;20303;-76
2023/10/21 13:28:06;;;;;;;;;;;;;;;;;;5052728;28;19925;-77
2023/10/21 13:30:33;;;;;;;;;;;;;;;;;;5044726;28;19947;-78
2023/10/21 13:33:00;;;;;;;;;;;;;;;;;;5053921;28;19971;-77
2023/10/21 13:35:27;;;;;;;;;;;;;;;;;;5054656;28;19925;-78
2023/10/21 13:37:55;;;;;;;;;;;;;;;;;;5044859;28;19991;-77
2023/10/21 13:40:22;;;;;;;;;;;;;;;;;;5040266;28;19925;-78
2023/10/21 13:42:51;;;;;;;;;;;;;;;;;;5041076;28;19936;-76
2023/10/21 13:45:20;;;;;;;;;;;;;;;;;;5044594;28;20034;-77
2023/10/21 13:47:47;;;;;;;;;;;;;;;;;;5040912;28;19978;-78
2023/10/21 13:50:15;;;;;;;;;;;;;;;;;;5045571;28;19978;-76
2023/10/21 13:52:42;;;;;;;;;;;;;;;;;;5052642;28;19928;-79
2023/10/21 13:55:14;;;;;;;;;;;;;;;;;;5043279;28;19925;-78
2023/10/21 13:57:41;;;;;;;;;;;;;;;;;;5050592;28;20363;-75
2023/10/21 14:00:25;;;;;;;;;;;;;;;;;;5048030;28;19937;-78
2023/10/21 14:02:52;;;;;;;;;;;;;;;;;;5047997;28;19924;-77
2023/10/21 14:05:20;;;;;;;;;;;;;;;;;;5047455;28;19935;-78
2023/10/21 14:07:47;;;;;;;;;;;;;;;;;;5051382;28;19925;-80
2023/10/21 14:10:14;;;;;;;;;;;;;;;;;;5052633;28;19929;-77
2023/10/21 14:12:41;;;;;;;;;;;;;;;;;;5052271;28;19971;-79
2023/10/21 14:15:16;;;;;;;;;;;;;;;;;;5052033;28;20307;-77
2023/10/21 14:17:43;;;;;;;;;;;;;;;;;;5053011;28;19947;-78
2023/10/21 14:20:11;;;;;;;;;;;;;;;;;;5053391;28;20020;-78
2023/10/21 14:22:38;;;;;;;;;;;;;;;;;;5053129;28;19925;-78
2023/10/21 14:25:04;;;;;;;;;;;;;;;;;;5050205;28;19935;-78
2023/10/21 14:27:32;;;;;;;;;;;;;;;;;;5053108;28;19932;-77
2023/10/21 14:29:59;;;;;;;;;;;;;;;;;;5050759;28;19925;-77
2023/10/21 14:32:26;;;;;;;;;;;;;;;;;;5053747;28;19987;-79
2023/10/21 14:34:53;;;;;;;;;;;;;;;;;;5050667;28;19957;-78
2023/10/21 14:37:20;;;;;;;;;;;;;;;;;;5046194;28;20012;-79
2023/10/21 14:39:47;;;;;;;;;;;;;;;;;;5049043;28;19986;-77
2023/10/21 14:42:16;;;;;;;;;;;;;;;;;;5051134;28;20340;-78
2023/10/21 14:44:45;;;;;;;;;;;;;;;;;;5054187;28;20329;-77
2023/10/21 14:47:12;;;;;;;;;;;;;;;;;;5048453;28;20337;-78
2023/10/21 14:49:39;;;;;;;;;;;;;;;;;;5048062;28;20016;-78
2023/10/21 14:52:06;;;;;;;;;;;;;;;;;;5049965;28;20002;-78
2023/10/21 14:54:33;;;;;;;;;;;;;;;;;;5048200;28;20074;-77
2023/10/21 14:57:00;;;;;;;;;;;;;;;;;;5050566;28;19970;-79
2023/10/21 14:59:28;;;;;;;;;;;;;;;;;;5052023;28;20276;-77
2023/10/21 15:01:55;;;;;;;;;;;;;;;;;;5064657;28;19989;-77
2023/10/21 15:04:22;;;;;;;;;;;;;;;;;;5046527;28;20183;-77
2023/10/21 15:06:50;;;;;;;;;;;;;;;;;;5041675;28;20421;-77
2023/10/21 15:09:19;;;;;;;;;;;;;;;;;;5045989;28;19933;-78
2023/10/21 15:11:46;;;;;;;;;;;;;;;;;;5050879;28;20287;-79
2023/10/21 15:14:13;;;;;;;;;;;;;;;;;;5047732;28;19932;-77
2023/10/21 15:16:40;;;;;;;;;;;;;;;;;;5049691;28;19983;-78
2023/10/21 15:19:07;;;;;;;;;;;;;;;;;;5056059;28;20346;-78
2023/10/21 15:21:34;;;;;;;;;;;;;;;;;;5050651;28;19925;-77
2023/10/21 15:24:03;;;;;;;;;;;;;;;;;;5043157;28;19925;-77
2023/10/21 15:26:31;;;;;;;;;;;;;;;;;;5052279;28;19932;-78
2023/10/21 15:28:58;;;;;;;;;;;;;;;;;;5051214;28;19925;-77
2023/10/21 15:31:25;;;;;;;;;;;;;;;;;;5049562;28;19924;-78
2023/10/21 15:33:56;;;;;;;;;;;;;;;;;;5050018;28;20537;-77
2023/10/21 15:36:23;;;;;;;;;;;;;;;;;;5047376;28;20024;-80
2023/10/21 15:38:52;;;;;;;;;;;;;;;;;;5051104;28;20498;-78
2023/10/21 15:41:19;;;;;;;;;;;;;;;;;;5044224;28;20000;-78
2023/10/21 15:43:46;;;;;;;;;;;;;;;;;;5043208;28;19933;-76
2023/10/21 15:46:13;;;;;;;;;;;;;;;;;;5046194;28;19983;-80
2023/10/21 15:48:40;;;;;;;;;;;;;;;;;;5044145;28;19953;-77
2023/10/21 15:51:07;;;;;;;;;;;;;;;;;;5044940;28;19925;-77
2023/10/21 15:53:34;;;;;;;;;;;;;;;;;;5047232;28;20002;-78
2023/10/21 15:56:01;;;;;;;;;;;;;;;;;;5050921;28;19929;-78
2023/10/21 15:58:28;;;;;;;;;;;;;;;;;;5046911;28;19986;-78
2023/10/21 16:00:55;;;;;;;;;;;;;;;;;;5051962;28;19924;-77
2023/10/21 16:03:22;;;;;;;;;;;;;;;;;;5049706;28;19952;-77
2023/10/21 16:05:49;;;;;;;;;;;;;;;;;;5048182;28;20401;-76
2023/10/21 16:08:20;;;;;;;;;;;;;;;;;;5046270;28;19925;-77
2023/10/21 16:10:47;;;;;;;;;;;;;;;;;;5049149;28;19967;-78
2023/10/21 16:13:14;;;;;;;;;;;;;;;;;;5051058;28;19925;-77
2023/10/21 16:15:42;;;;;;;;;;;;;;;;;;5046985;28;19928;-77
2023/10/21 16:18:09;;;;;;;;;;;;;;;;;;5049928;28;19971;-78
2023/10/21 16:20:36;;;;;;;;;;;;;;;;;;5047167;28;19925;-77
2023/10/21 16:23:04;;;;;;;;;;;;;;;;;;5041732;28;20378;-78
2023/10/21 16:25:30;;;;;;;;;;;;;;;;;;5046373;28;20391;-79
2023/10/21 16:27:57;;;;;;;;;;;;;;;;;;5040161;28;19971;-78
2023/10/21 16:30:26;;;;;;;;;;;;;;;;;;5047353;28;19960;-74
2023/10/21 16:32:53;;;;;;;;;;;;;;;;;;5046367;28;19925;-74
2023/10/21 16:35:20;;;;;;;;;;;;;;;;;;5048380;28;19967;-73
2023/10/21 16:37:47;;;;;;;;;;;;;;;;;;5047167;28;19925;-73
2023/10/21 16:40:14;;;;;;;;;;;;;;;;;;5045686;28;19999;-73
2023/10/21 16:42:41;;;;;;;;;;;;;;;;;;5050174;28;20337;-73
2023/10/21 16:45:09;;;;;;;;;;;;;;;;;;5043972;28;19971;-74
2023/10/21 16:47:36;;;;;;;;;;;;;;;;;;5043101;28;19985;-73
2023/10/21 16:50:03;;;;;;;;;;;;;;;;;;5043900;28;20355;-73
2023/10/21 16:52:30;;;;;;;;;;;;;;;;;;5044216;28;19925;-73
2023/10/21 16:54:57;;;;;;;;;;;;;;;;;;5041372;28;20334;-73
2023/10/21 16:57:24;;;;;;;;;;;;;;;;;;5037525;28;19944;-74
2023/10/21 16:59:51;;;;;;;;;;;;;;;;;;5050303;28;19964;-74
2023/10/21 17:02:18;;;;;;;;;;;;;;;;;;5051391;28;20453;-74
2023/10/21 17:04:45;;;;;;;;;;;;;;;;;;5047747;28;19972;-74
2023/10/21 17:07:12;;;;;;;;;;;;;;;;;;5048017;28;20004;-73
2023/10/21 17:09:39;;;;;;;;;;;;;;;;;;5049219;28;20394;-73
2023/10/21 17:12:06;;;;;;;;;;;;;;;;;;5046242;28;19978;-74
2023/10/21 17:14:33;;;;;;;;;;;;;;;;;;5049358;28;19956;-74
2023/10/21 17:17:00;;;;;;;;;;;;;;;;;;5053553;28;19947;-74